sensor_id;sensor_type;location;lat;lon;timestamp;pressure;altitude;pressure_sealevel;temperature;humidity
79705;BME280;69940;53.120;8.764;2024-03-02T00:00:33;100425.00;;;9.34;75.34
79705;BME280;69940;53.120;8.764;2024-03-02T00:03:04;100425.00;;;9.34;75.38
79705;BME280;69940;53.120;8.764;2024-03-02T00:05:34;100424.00;;;9.34;75.34
79705;BME280;69940;53.120;8.764;2024-03-02T00:08:05;100423.00;;;9.34;75.32
79705;BME280;69940;53.120;8.764;2024-03-02T00:10:38;100423.00;;;9.35;75.30
79705;BME280;69940;53.120;8.764;2024-03-02T00:13:04;100422.00;;;9.36;75.19
79705;BME280;69940;53.120;8.764;2024-03-02T00:15:48;100423.00;;;9.37;75.09
79705;BME280;69940;53.120;8.764;2024-03-02T00:18:06;100423.00;;;9.38;75.11
79705;BME280;69940;53.120;8.764;2024-03-02T00:20:33;100424.00;;;9.38;75.13
79705;BME280;69940;53.120;8.764;2024-03-02T00:23:05;100424.00;;;9.38;75.10
79705;BME280;69940;53.120;8.764;2024-03-02T00:25:46;100424.00;;;9.39;75.07
79705;BME280;69940;53.120;8.764;2024-03-02T00:28:04;100424.00;;;9.40;74.98
79705;BME280;69940;53.120;8.764;2024-03-02T00:30:51;100424.00;;;9.40;74.93
79705;BME280;69940;53.120;8.764;2024-03-02T00:33:06;100424.00;;;9.39;74.99
79705;BME280;69940;53.120;8.764;2024-03-02T00:35:33;100422.00;;;9.39;74.97
79705;BME280;69940;53.120;8.764;2024-03-02T00:38:04;100419.00;;;9.38;74.96
79705;BME280;69940;53.120;8.764;2024-03-02T00:40:33;100417.00;;;9.36;75.11
79705;BME280;69940;53.120;8.764;2024-03-02T00:43:04;100415.00;;;9.34;75.11
79705;BME280;69940;53.120;8.764;2024-03-02T00:45:33;100414.00;;;9.33;75.03
79705;BME280;69940;53.120;8.764;2024-03-02T00:48:06;100411.00;;;9.32;75.01
79705;BME280;69940;53.120;8.764;2024-03-02T00:50:33;100410.00;;;9.30;75.03
79705;BME280;69940;53.120;8.764;2024-03-02T00:53:04;100409.00;;;9.29;75.00
79705;BME280;69940;53.120;8.764;2024-03-02T00:55:36;100408.00;;;9.28;74.98
79705;BME280;69940;53.120;8.764;2024-03-02T00:58:04;100408.00;;;9.28;74.85
79705;BME280;69940;53.120;8.764;2024-03-02T01:00:33;100408.00;;;9.27;74.77
79705;BME280;69940;53.120;8.764;2024-03-02T01:03:04;100408.00;;;9.26;74.81
79705;BME280;69940;53.120;8.764;2024-03-02T01:05:33;100406.00;;;9.25;74.85
79705;BME280;69940;53.120;8.764;2024-03-02T01:08:04;100404.00;;;9.23;74.85
79705;BME280;69940;53.120;8.764;2024-03-02T01:10:34;100401.00;;;9.21;74.92
79705;BME280;69940;53.120;8.764;2024-03-02T01:13:04;100399.00;;;9.19;74.81
79705;BME280;69940;53.120;8.764;2024-03-02T01:15:33;100397.00;;;9.17;74.90
79705;BME280;69940;53.120;8.764;2024-03-02T01:18:04;100395.00;;;9.15;74.83
79705;BME280;69940;53.120;8.764;2024-03-02T08:05:36;100410.00;;;9.24;75.05
79705;BME280;69940;53.120;8.764;2024-03-02T08:08:04;100412.00;;;9.27;75.03
79705;BME280;69940;53.120;8.764;2024-03-02T08:10:34;100412.00;;;9.30;75.03
79705;BME280;69940;53.120;8.764;2024-03-02T08:13:04;100412.00;;;9.32;74.92
79705;BME280;69940;53.120;8.764;2024-03-02T08:15:33;100410.00;;;9.35;74.87
79705;BME280;69940;53.120;8.764;2024-03-02T08:18:04;100411.00;;;9.38;74.88
79705;BME280;69940;53.120;8.764;2024-03-02T08:20:33;100412.00;;;9.40;74.81
79705;BME280;69940;53.120;8.764;2024-03-02T08:23:04;100413.00;;;9.43;74.75
79705;BME280;69940;53.120;8.764;2024-03-02T08:25:33;100414.00;;;9.46;74.66
79705;BME280;69940;53.120;8.764;2024-03-02T08:28:03;100417.00;;;9.49;74.64
79705;BME280;69940;53.120;8.764;2024-03-02T08:30:33;100419.00;;;9.51;74.59
79705;BME280;69940;53.120;8.764;2024-03-02T08:33:04;100422.00;;;9.54;74.54
79705;BME280;69940;53.120;8.764;2024-03-02T08:35:37;100426.00;;;9.56;74.44
79705;BME280;69940;53.120;8.764;2024-03-02T08:38:04;100429.00;;;9.60;74.47
79705;BME280;69940;53.120;8.764;2024-03-02T08:40:33;100432.00;;;9.64;74.35
79705;BME280;69940;53.120;8.764;2024-03-02T08:43:04;100434.00;;;9.68;74.30
79705;BME280;69940;53.120;8.764;2024-03-02T08:45:35;100437.00;;;9.73;74.23
79705;BME280;69940;53.120;8.764;2024-03-02T08:48:04;100440.00;;;9.79;74.02
79705;BME280;69940;53.120;8.764;2024-03-02T08:50:33;100443.00;;;9.85;73.86
79705;BME280;69940;53.120;8.764;2024-03-02T08:53:04;100447.00;;;9.90;73.77
79705;BME280;69940;53.120;8.764;2024-03-02T08:55:33;100450.00;;;9.95;73.70
79705;BME280;69940;53.120;8.764;2024-03-02T08:58:04;100453.00;;;9.99;73.66
79705;BME280;69940;53.120;8.764;2024-03-02T09:00:33;100456.00;;;10.05;73.67
79705;BME280;69940;53.120;8.764;2024-03-02T09:03:04;100459.00;;;10.10;73.49
79705;BME280;69940;53.120;8.764;2024-03-02T09:05:33;100461.00;;;10.14;73.15
79705;BME280;69940;53.120;8.764;2024-03-02T09:08:05;100464.00;;;10.17;73.16
79705;BME280;69940;53.120;8.764;2024-03-02T09:10:33;100466.00;;;10.20;73.11
79705;BME280;69940;53.120;8.764;2024-03-02T09:13:03;100467.00;;;10.24;73.26
79705;BME280;69940;53.120;8.764;2024-03-02T09:15:34;100468.00;;;10.26;72.78
79705;BME280;69940;53.120;8.764;2024-03-02T09:18:04;100469.00;;;10.29;72.90
79705;BME280;69940;53.120;8.764;2024-03-02T09:20:33;100468.00;;;10.30;72.95
79705;BME280;69940;53.120;8.764;2024-03-02T09:23:04;100466.00;;;10.33;73.02
79705;BME280;69940;53.120;8.764;2024-03-02T09:25:33;100464.00;;;10.35;72.81
79705;BME280;69940;53.120;8.764;2024-03-02T09:28:04;100464.00;;;10.36;72.69
79705;BME280;69940;53.120;8.764;2024-03-02T09:30:33;100465.00;;;10.37;72.64
79705;BME280;69940;53.120;8.764;2024-03-02T09:33:04;100465.00;;;10.40;72.73
79705;BME280;69940;53.120;8.764;2024-03-02T09:35:34;100467.00;;;10.42;72.65
79705;BME280;69940;53.120;8.764;2024-03-02T09:38:04;100469.00;;;10.44;72.42
79705;BME280;69940;53.120;8.764;2024-03-02T09:40:33;100471.00;;;10.47;72.31
79705;BME280;69940;53.120;8.764;2024-03-02T09:43:04;100471.00;;;10.49;72.25
79705;BME280;69940;53.120;8.764;2024-03-02T09:45:34;100471.00;;;10.51;72.17
79705;BME280;69940;53.120;8.764;2024-03-02T09:48:04;100471.00;;;10.54;72.24
79705;BME280;69940;53.120;8.764;2024-03-02T09:50:33;100473.00;;;10.59;72.17
79705;BME280;69940;53.120;8.764;2024-03-02T09:53:04;100474.00;;;10.63;72.03
79705;BME280;69940;53.120;8.764;2024-03-02T09:55:33;100474.00;;;10.68;71.92
79705;BME280;69940;53.120;8.764;2024-03-02T09:58:04;100473.00;;;10.72;71.68
79705;BME280;69940;53.120;8.764;2024-03-02T10:00:34;100473.00;;;10.76;71.65
79705;BME280;69940;53.120;8.764;2024-03-02T10:03:13;100474.00;;;10.80;71.71
79705;BME280;69940;53.120;8.764;2024-03-02T10:05:33;100474.00;;;10.86;71.72
79705;BME280;69940;53.120;8.764;2024-03-02T10:08:04;100474.00;;;10.91;71.52
79705;BME280;69940;53.120;8.764;2024-03-02T10:10:38;100473.00;;;10.97;71.10
79705;BME280;69940;53.120;8.764;2024-03-02T10:13:05;100470.00;;;11.02;71.05
79705;BME280;69940;53.120;8.764;2024-03-02T10:15:35;100470.00;;;11.07;71.04
79705;BME280;69940;53.120;8.764;2024-03-02T10:18:04;100471.00;;;11.13;70.74
79705;BME280;69940;53.120;8.764;2024-03-02T10:20:34;100471.00;;;11.19;70.29
79705;BME280;69940;53.120;8.764;2024-03-02T10:23:10;100472.00;;;11.25;70.44
79705;BME280;69940;53.120;8.764;2024-03-02T10:25:34;100471.00;;;11.31;70.07
79705;BME280;69940;53.120;8.764;2024-03-02T10:28:06;100472.00;;;11.36;70.09
79705;BME280;69940;53.120;8.764;2024-03-02T10:30:34;100473.00;;;11.41;69.91
79705;BME280;69940;53.120;8.764;2024-03-02T10:33:05;100475.00;;;11.47;69.88
79705;BME280;69940;53.120;8.764;2024-03-02T10:35:33;100473.00;;;11.51;69.62
79705;BME280;69940;53.120;8.764;2024-03-02T10:38:04;100472.00;;;11.56;69.64
79705;BME280;69940;53.120;8.764;2024-03-02T10:40:34;100472.00;;;11.61;69.10
79705;BME280;69940;53.120;8.764;2024-03-02T10:43:07;100471.00;;;11.67;68.97
79705;BME280;69940;53.120;8.764;2024-03-02T10:45:34;100470.00;;;11.72;68.57
79705;BME280;69940;53.120;8.764;2024-03-02T10:48:07;100470.00;;;11.77;68.24
79705;BME280;69940;53.120;8.764;2024-03-02T10:50:33;100467.00;;;11.82;68.20
79705;BME280;69940;53.120;8.764;2024-03-02T10:53:06;100467.00;;;11.86;67.89
79705;BME280;69940;53.120;8.764;2024-03-02T10:55:34;100468.00;;;11.91;67.85
79705;BME280;69940;53.120;8.764;2024-03-02T10:58:12;100468.00;;;11.95;67.82
79705;BME280;69940;53.120;8.764;2024-03-02T11:00:34;100468.00;;;11.99;67.46
79705;BME280;69940;53.120;8.764;2024-03-02T11:03:06;100467.00;;;12.03;67.75
79705;BME280;69940;53.120;8.764;2024-03-02T11:05:36;100466.00;;;12.07;67.22
79705;BME280;69940;53.120;8.764;2024-03-02T11:08:08;100466.00;;;12.10;67.18
79705;BME280;69940;53.120;8.764;2024-03-02T11:10:42;100468.00;;;12.14;67.15
79705;BME280;69940;53.120;8.764;2024-03-02T11:13:08;100469.00;;;12.17;66.60
79705;BME280;69940;53.120;8.764;2024-03-02T11:15:34;100469.00;;;12.20;66.53
79705;BME280;69940;53.120;8.764;2024-03-02T11:18:10;100470.00;;;12.23;66.76
79705;BME280;69940;53.120;8.764;2024-03-02T11:20:34;100470.00;;;12.26;65.88
79705;BME280;69940;53.120;8.764;2024-03-02T11:23:05;100469.00;;;12.29;66.16
79705;BME280;69940;53.120;8.764;2024-03-02T11:25:34;100468.00;;;12.32;66.15
79705;BME280;69940;53.120;8.764;2024-03-02T11:28:05;100470.00;;;12.36;66.20
79705;BME280;69940;53.120;8.764;2024-03-02T11:33:10;100470.00;;;12.41;65.39
79705;BME280;69940;53.120;8.764;2024-03-02T11:35:34;100470.00;;;12.43;65.94
79705;BME280;69940;53.120;8.764;2024-03-02T11:38:06;100469.00;;;12.46;66.04
79705;BME280;69940;53.120;8.764;2024-03-02T11:40:33;100467.00;;;12.49;65.67
79705;BME280;69940;53.120;8.764;2024-03-02T11:43:05;100464.00;;;12.52;65.79
79705;BME280;69940;53.120;8.764;2024-03-02T11:45:36;100461.00;;;12.56;65.94
79705;BME280;69940;53.120;8.764;2024-03-02T11:48:05;100459.00;;;12.59;65.37
79705;BME280;69940;53.120;8.764;2024-03-02T11:50:36;100459.00;;;12.62;65.75
79705;BME280;69940;53.120;8.764;2024-03-02T11:53:05;100457.00;;;12.65;65.54
79705;BME280;69940;53.120;8.764;2024-03-02T11:55:35;100454.00;;;12.68;64.85
79705;BME280;69940;53.120;8.764;2024-03-02T11:58:04;100452.00;;;12.71;65.14
79705;BME280;69940;53.120;8.764;2024-03-02T12:00:33;100450.00;;;12.74;64.87
79705;BME280;69940;53.120;8.764;2024-03-02T12:03:08;100448.00;;;12.77;64.86
79705;BME280;69940;53.120;8.764;2024-03-02T12:05:34;100447.00;;;12.79;65.11
79705;BME280;69940;53.120;8.764;2024-03-02T12:08:05;100445.00;;;12.81;64.91
79705;BME280;69940;53.120;8.764;2024-03-02T12:10:35;100445.00;;;12.83;64.25
79705;BME280;69940;53.120;8.764;2024-03-02T12:13:05;100446.00;;;12.84;64.53
79705;BME280;69940;53.120;8.764;2024-03-02T12:15:35;100447.00;;;12.86;64.86
79705;BME280;69940;53.120;8.764;2024-03-02T12:18:05;100447.00;;;12.88;64.84
79705;BME280;69940;53.120;8.764;2024-03-02T12:20:33;100446.00;;;12.91;64.55
79705;BME280;69940;53.120;8.764;2024-03-02T12:23:04;100446.00;;;12.93;64.77
79705;BME280;69940;53.120;8.764;2024-03-02T12:25:36;100445.00;;;12.96;64.94
79705;BME280;69940;53.120;8.764;2024-03-02T12:28:04;100445.00;;;12.98;65.26
79705;BME280;69940;53.120;8.764;2024-03-02T12:30:35;100446.00;;;13.00;65.40
79705;BME280;69940;53.120;8.764;2024-03-02T12:33:04;100447.00;;;13.02;65.39
79705;BME280;69940;53.120;8.764;2024-03-02T12:35:34;100447.00;;;13.04;64.96
79705;BME280;69940;53.120;8.764;2024-03-02T12:38:04;100448.00;;;13.07;64.79
79705;BME280;69940;53.120;8.764;2024-03-02T12:40:33;100449.00;;;13.08;64.62
79705;BME280;69940;53.120;8.764;2024-03-02T12:43:05;100450.00;;;13.10;64.73
79705;BME280;69940;53.120;8.764;2024-03-02T12:45:34;100451.00;;;13.13;64.97
79705;BME280;69940;53.120;8.764;2024-03-02T12:48:04;100451.00;;;13.15;64.82
79705;BME280;69940;53.120;8.764;2024-03-02T12:50:33;100450.00;;;13.17;64.84
79705;BME280;69940;53.120;8.764;2024-03-02T12:53:04;100451.00;;;13.19;64.63
79705;BME280;69940;53.120;8.764;2024-03-02T12:55:34;100450.00;;;13.22;64.58
79705;BME280;69940;53.120;8.764;2024-03-02T12:58:04;100450.00;;;13.24;64.42
79705;BME280;69940;53.120;8.764;2024-03-02T13:00:37;100449.00;;;13.26;64.26
79705;BME280;69940;53.120;8.764;2024-03-02T13:03:04;100448.00;;;13.27;64.12
79705;BME280;69940;53.120;8.764;2024-03-02T13:05:33;100447.00;;;13.28;64.44
79705;BME280;69940;53.120;8.764;2024-03-02T13:08:06;100445.00;;;13.29;64.43
79705;BME280;69940;53.120;8.764;2024-03-02T13:10:33;100444.00;;;13.30;64.32
79705;BME280;69940;53.120;8.764;2024-03-02T13:13:04;100443.00;;;13.31;64.05
79705;BME280;69940;53.120;8.764;2024-03-02T13:15:33;100441.00;;;13.32;64.31
79705;BME280;69940;53.120;8.764;2024-03-02T13:18:07;100441.00;;;13.34;64.13
79705;BME280;69940;53.120;8.764;2024-03-02T13:20:33;100439.00;;;13.36;63.98
79705;BME280;69940;53.120;8.764;2024-03-02T13:23:03;100437.00;;;13.38;63.94
79705;BME280;69940;53.120;8.764;2024-03-02T13:25:34;100435.00;;;13.40;64.31
79705;BME280;69940;53.120;8.764;2024-03-02T13:28:04;100434.00;;;13.41;64.15
79705;BME280;69940;53.120;8.764;2024-03-02T13:30:34;100432.00;;;13.43;64.25
79705;BME280;69940;53.120;8.764;2024-03-02T13:33:04;100430.00;;;13.45;64.38
79705;BME280;69940;53.120;8.764;2024-03-02T13:35:33;100427.00;;;13.47;64.42
79705;BME280;69940;53.120;8.764;2024-03-02T13:38:03;100425.00;;;13.48;64.36
79705;BME280;69940;53.120;8.764;2024-03-02T13:40:36;100423.00;;;13.49;64.53
79705;BME280;69940;53.120;8.764;2024-03-02T13:43:04;100421.00;;;13.50;64.49
79705;BME280;69940;53.120;8.764;2024-03-02T13:45:38;100419.00;;;13.52;64.60
79705;BME280;69940;53.120;8.764;2024-03-02T13:48:04;100418.00;;;13.53;64.73
79705;BME280;69940;53.120;8.764;2024-03-02T13:50:33;100414.00;;;13.54;64.89
79705;BME280;69940;53.120;8.764;2024-03-02T13:53:04;100411.00;;;13.56;64.46
79705;BME280;69940;53.120;8.764;2024-03-02T13:55:34;100409.00;;;13.58;64.47
79705;BME280;69940;53.120;8.764;2024-03-02T13:58:04;100408.00;;;13.59;64.47
79705;BME280;69940;53.120;8.764;2024-03-02T14:00:33;100406.00;;;13.61;64.49
79705;BME280;69940;53.120;8.764;2024-03-02T14:03:05;100403.00;;;13.62;64.30
79705;BME280;69940;53.120;8.764;2024-03-02T14:05:34;100401.00;;;13.63;64.40
79705;BME280;69940;53.120;8.764;2024-03-02T14:08:05;100401.00;;;13.64;64.49
79705;BME280;69940;53.120;8.764;2024-03-02T14:10:33;100401.00;;;13.65;64.57
79705;BME280;69940;53.120;8.764;2024-03-02T14:13:04;100400.00;;;13.67;63.93
79705;BME280;69940;53.120;8.764;2024-03-02T14:15:33;100399.00;;;13.68;64.05
79705;BME280;69940;53.120;8.764;2024-03-02T14:18:04;100398.00;;;13.70;63.73
79705;BME280;69940;53.120;8.764;2024-03-02T14:20:34;100397.00;;;13.71;63.57
79705;BME280;69940;53.120;8.764;2024-03-02T14:23:04;100395.00;;;13.72;63.77
79705;BME280;69940;53.120;8.764;2024-03-02T14:25:34;100394.00;;;13.74;63.60
79705;BME280;69940;53.120;8.764;2024-03-02T14:28:04;100392.00;;;13.75;63.22
79705;BME280;69940;53.120;8.764;2024-03-02T14:30:35;100390.00;;;13.77;63.21
79705;BME280;69940;53.120;8.764;2024-03-02T14:33:04;100390.00;;;13.79;63.01
79705;BME280;69940;53.120;8.764;2024-03-02T14:35:33;100389.00;;;13.80;62.93
79705;BME280;69940;53.120;8.764;2024-03-02T14:38:04;100387.00;;;13.81;62.76
79705;BME280;69940;53.120;8.764;2024-03-02T14:40:34;100386.00;;;13.82;62.85
79705;BME280;69940;53.120;8.764;2024-03-02T14:43:04;100388.00;;;13.83;62.80
79705;BME280;69940;53.120;8.764;2024-03-02T14:45:33;100389.00;;;13.85;62.79
79705;BME280;69940;53.120;8.764;2024-03-02T14:48:04;100388.00;;;13.86;62.79
79705;BME280;69940;53.120;8.764;2024-03-02T14:50:34;100387.00;;;13.87;63.20
79705;BME280;69940;53.120;8.764;2024-03-02T14:53:04;100386.00;;;13.88;63.21
79705;BME280;69940;53.120;8.764;2024-03-02T14:55:33;100385.00;;;13.89;63.23
79705;BME280;69940;53.120;8.764;2024-03-02T14:58:04;100383.00;;;13.90;62.77
79705;BME280;69940;53.120;8.764;2024-03-02T15:00:33;100383.00;;;13.91;63.07
79705;BME280;69940;53.120;8.764;2024-03-02T15:03:07;100383.00;;;13.92;63.24
79705;BME280;69940;53.120;8.764;2024-03-02T15:05:33;100380.00;;;13.92;63.00
79705;BME280;69940;53.120;8.764;2024-03-02T15:08:06;100377.00;;;13.92;62.93
79705;BME280;69940;53.120;8.764;2024-03-02T15:10:33;100376.00;;;13.93;62.83
79705;BME280;69940;53.120;8.764;2024-03-02T15:13:03;100376.00;;;13.93;62.69
79705;BME280;69940;53.120;8.764;2024-03-02T15:15:34;100374.00;;;13.93;62.87
79705;BME280;69940;53.120;8.764;2024-03-02T15:18:05;100372.00;;;13.93;62.63
79705;BME280;69940;53.120;8.764;2024-03-02T15:20:33;100370.00;;;13.93;62.45
79705;BME280;69940;53.120;8.764;2024-03-02T15:23:04;100368.00;;;13.94;62.56
79705;BME280;69940;53.120;8.764;2024-03-02T15:25:33;100366.00;;;13.94;62.47
79705;BME280;69940;53.120;8.764;2024-03-02T15:28:04;100365.00;;;13.93;62.62
79705;BME280;69940;53.120;8.764;2024-03-02T15:30:33;100363.00;;;13.93;62.58
79705;BME280;69940;53.120;8.764;2024-03-02T15:33:04;100362.00;;;13.93;61.83
79705;BME280;69940;53.120;8.764;2024-03-02T15:35:33;100361.00;;;13.93;62.15
79705;BME280;69940;53.120;8.764;2024-03-02T15:38:03;100361.00;;;13.93;62.13
79705;BME280;69940;53.120;8.764;2024-03-02T15:40:34;100360.00;;;13.92;61.82
79705;BME280;69940;53.120;8.764;2024-03-02T15:43:03;100360.00;;;13.91;62.20
79705;BME280;69940;53.120;8.764;2024-03-02T15:45:34;100360.00;;;13.90;62.18
79705;BME280;69940;53.120;8.764;2024-03-02T15:48:04;100359.00;;;13.88;62.10
79705;BME280;69940;53.120;8.764;2024-03-02T15:50:33;100358.00;;;13.86;62.50
79705;BME280;69940;53.120;8.764;2024-03-02T15:53:07;100357.00;;;13.84;62.54
79705;BME280;69940;53.120;8.764;2024-03-02T15:55:36;100356.00;;;13.81;62.71
79705;BME280;69940;53.120;8.764;2024-03-02T15:58:07;100355.00;;;13.78;62.84
79705;BME280;69940;53.120;8.764;2024-03-02T16:00:33;100354.00;;;13.75;63.20
79705;BME280;69940;53.120;8.764;2024-03-02T16:03:04;100353.00;;;13.72;63.37
79705;BME280;69940;53.120;8.764;2024-03-02T16:05:34;100353.00;;;13.69;63.67
79705;BME280;69940;53.120;8.764;2024-03-02T16:08:06;100352.00;;;13.66;63.88
79705;BME280;69940;53.120;8.764;2024-03-02T16:10:34;100353.00;;;13.63;64.07
79705;BME280;69940;53.120;8.764;2024-03-02T16:13:04;100354.00;;;13.60;64.25
79705;BME280;69940;53.120;8.764;2024-03-02T16:15:34;100356.00;;;13.57;64.26
79705;BME280;69940;53.120;8.764;2024-03-02T16:18:04;100357.00;;;13.54;64.22
79705;BME280;69940;53.120;8.764;2024-03-02T16:20:34;100357.00;;;13.51;64.36
79705;BME280;69940;53.120;8.764;2024-03-02T16:23:04;100358.00;;;13.47;64.49
79705;BME280;69940;53.120;8.764;2024-03-02T16:25:33;100359.00;;;13.44;64.42
79705;BME280;69940;53.120;8.764;2024-03-02T16:28:04;100360.00;;;13.40;64.55
79705;BME280;69940;53.120;8.764;2024-03-02T16:30:34;100360.00;;;13.36;64.55
79705;BME280;69940;53.120;8.764;2024-03-02T16:33:04;100361.00;;;13.33;64.66
79705;BME280;69940;53.120;8.764;2024-03-02T16:35:33;100362.00;;;13.29;64.78
79705;BME280;69940;53.120;8.764;2024-03-02T16:38:04;100363.00;;;13.26;64.79
79705;BME280;69940;53.120;8.764;2024-03-02T16:40:33;100364.00;;;13.23;64.96
79705;BME280;69940;53.120;8.764;2024-03-02T16:43:04;100366.00;;;13.19;65.08
79705;BME280;69940;53.120;8.764;2024-03-02T16:45:34;100368.00;;;13.16;65.25
79705;BME280;69940;53.120;8.764;2024-03-02T16:48:04;100371.00;;;13.12;65.46
79705;BME280;69940;53.120;8.764;2024-03-02T16:50:33;100373.00;;;13.09;65.71
79705;BME280;69940;53.120;8.764;2024-03-02T16:53:04;100374.00;;;13.05;65.87
79705;BME280;69940;53.120;8.764;2024-03-02T16:55:33;100376.00;;;13.02;66.09
79705;BME280;69940;53.120;8.764;2024-03-02T16:58:04;100376.00;;;12.99;66.24
79705;BME280;69940;53.120;8.764;2024-03-02T17:00:33;100376.00;;;12.95;66.21
79705;BME280;69940;53.120;8.764;2024-03-02T17:03:04;100377.00;;;12.92;66.26
79705;BME280;69940;53.120;8.764;2024-03-02T17:05:33;100377.00;;;12.89;66.25
79705;BME280;69940;53.120;8.764;2024-03-02T17:08:04;100377.00;;;12.86;66.36
79705;BME280;69940;53.120;8.764;2024-03-02T17:10:33;100378.00;;;12.82;66.45
79705;BME280;69940;53.120;8.764;2024-03-02T17:13:04;100378.00;;;12.79;66.58
79705;BME280;69940;53.120;8.764;2024-03-02T17:15:33;100378.00;;;12.75;66.65
79705;BME280;69940;53.120;8.764;2024-03-02T17:18:04;100379.00;;;12.72;66.72
79705;BME280;69940;53.120;8.764;2024-03-02T17:20:33;100381.00;;;12.69;66.76
79705;BME280;69940;53.120;8.764;2024-03-02T17:23:04;100382.00;;;12.65;66.94
79705;BME280;69940;53.120;8.764;2024-03-02T17:25:33;100385.00;;;12.61;67.03
79705;BME280;69940;53.120;8.764;2024-03-02T17:28:23;100387.00;;;12.58;67.06
79705;BME280;69940;53.120;8.764;2024-03-02T17:30:33;100389.00;;;12.54;67.10
79705;BME280;69940;53.120;8.764;2024-03-02T17:33:04;100392.00;;;12.51;67.16
79705;BME280;69940;53.120;8.764;2024-03-02T17:35:33;100395.00;;;12.49;67.23
79705;BME280;69940;53.120;8.764;2024-03-02T17:38:04;100398.00;;;12.46;67.29
79705;BME280;69940;53.120;8.764;2024-03-02T17:40:33;100398.00;;;12.43;67.31
79705;BME280;69940;53.120;8.764;2024-03-02T17:43:04;100400.00;;;12.40;67.42
79705;BME280;69940;53.120;8.764;2024-03-02T17:45:33;100401.00;;;12.37;67.47
79705;BME280;69940;53.120;8.764;2024-03-02T17:48:04;100403.00;;;12.34;67.55
79705;BME280;69940;53.120;8.764;2024-03-02T17:50:33;100405.00;;;12.31;67.65
79705;BME280;69940;53.120;8.764;2024-03-02T17:53:04;100407.00;;;12.28;67.70
79705;BME280;69940;53.120;8.764;2024-03-02T17:55:33;100409.00;;;12.26;67.76
79705;BME280;69940;53.120;8.764;2024-03-02T17:58:04;100410.00;;;12.24;67.82
79705;BME280;69940;53.120;8.764;2024-03-02T18:00:33;100412.00;;;12.21;67.91
79705;BME280;69940;53.120;8.764;2024-03-02T18:03:04;100413.00;;;12.19;67.95
79705;BME280;69940;53.120;8.764;2024-03-02T18:05:34;100416.00;;;12.17;68.04
79705;BME280;69940;53.120;8.764;2024-03-02T18:08:04;100419.00;;;12.14;68.06
79705;BME280;69940;53.120;8.764;2024-03-02T18:10:34;100421.00;;;12.12;68.13
79705;BME280;69940;53.120;8.764;2024-03-02T18:13:03;100422.00;;;12.10;68.17
79705;BME280;69940;53.120;8.764;2024-03-02T18:15:33;100423.00;;;12.07;68.20
79705;BME280;69940;53.120;8.764;2024-03-02T18:18:04;100425.00;;;12.05;68.17
79705;BME280;69940;53.120;8.764;2024-03-02T18:20:36;100425.00;;;12.03;68.12
79705;BME280;69940;53.120;8.764;2024-03-02T18:23:04;100426.00;;;12.01;68.13
79705;BME280;69940;53.120;8.764;2024-03-02T18:25:33;100427.00;;;11.99;68.00
79705;BME280;69940;53.120;8.764;2024-03-02T18:28:04;100429.00;;;11.98;67.92
79705;BME280;69940;53.120;8.764;2024-03-02T18:30:33;100429.00;;;11.97;67.80
79705;BME280;69940;53.120;8.764;2024-03-02T18:33:04;100430.00;;;11.96;67.81
79705;BME280;69940;53.120;8.764;2024-03-02T18:35:34;100430.00;;;11.95;67.75
79705;BME280;69940;53.120;8.764;2024-03-02T18:38:04;100432.00;;;11.93;67.74
79705;BME280;69940;53.120;8.764;2024-03-02T18:40:33;100433.00;;;11.91;67.68
79705;BME280;69940;53.120;8.764;2024-03-02T18:43:05;100434.00;;;11.90;67.64
79705;BME280;69940;53.120;8.764;2024-03-02T18:45:33;100435.00;;;11.88;67.65
79705;BME280;69940;53.120;8.764;2024-03-02T18:48:04;100436.00;;;11.87;67.58
79705;BME280;69940;53.120;8.764;2024-03-02T18:50:33;100437.00;;;11.86;67.57
79705;BME280;69940;53.120;8.764;2024-03-02T18:53:04;100439.00;;;11.85;67.53
79705;BME280;69940;53.120;8.764;2024-03-02T18:55:33;100439.00;;;11.85;67.56
79705;BME280;69940;53.120;8.764;2024-03-02T18:58:04;100440.00;;;11.84;67.56
79705;BME280;69940;53.120;8.764;2024-03-02T19:00:33;100442.00;;;11.83;67.55
79705;BME280;69940;53.120;8.764;2024-03-02T19:03:04;100444.00;;;11.82;67.57
79705;BME280;69940;53.120;8.764;2024-03-02T19:05:33;100445.00;;;11.82;67.54
79705;BME280;69940;53.120;8.764;2024-03-02T19:08:04;100447.00;;;11.81;67.64
79705;BME280;69940;53.120;8.764;2024-03-02T19:10:33;100448.00;;;11.79;67.64
79705;BME280;69940;53.120;8.764;2024-03-02T19:13:05;100450.00;;;11.78;67.69
79705;BME280;69940;53.120;8.764;2024-03-02T19:15:33;100451.00;;;11.76;67.67
79705;BME280;69940;53.120;8.764;2024-03-02T19:18:04;100454.00;;;11.75;67.74
79705;BME280;69940;53.120;8.764;2024-03-02T19:20:33;100458.00;;;11.74;67.76
79705;BME280;69940;53.120;8.764;2024-03-02T19:23:04;100461.00;;;11.74;67.66
79705;BME280;69940;53.120;8.764;2024-03-02T19:25:33;100462.00;;;11.73;67.64
79705;BME280;69940;53.120;8.764;2024-03-02T19:28:05;100463.00;;;11.72;67.61
79705;BME280;69940;53.120;8.764;2024-03-02T19:30:33;100462.00;;;11.70;67.62
79705;BME280;69940;53.120;8.764;2024-03-02T19:33:04;100463.00;;;11.69;67.65
79705;BME280;69940;53.120;8.764;2024-03-02T19:35:33;100464.00;;;11.67;67.65
79705;BME280;69940;53.120;8.764;2024-03-02T19:38:04;100464.00;;;11.65;67.60
79705;BME280;69940;53.120;8.764;2024-03-02T19:40:34;100464.00;;;11.64;67.65
79705;BME280;69940;53.120;8.764;2024-03-02T19:43:04;100463.00;;;11.63;67.59
79705;BME280;69940;53.120;8.764;2024-03-02T19:45:33;100464.00;;;11.63;67.57
79705;BME280;69940;53.120;8.764;2024-03-02T19:48:04;100465.00;;;11.62;67.57
79705;BME280;69940;53.120;8.764;2024-03-02T19:50:33;100465.00;;;11.61;67.59
79705;BME280;69940;53.120;8.764;2024-03-02T19:53:04;100466.00;;;11.60;67.66